Mura





Hora UTC 20:05
Temperatura 0.9 ºC
Humitat 82.0 %
Pressió 995.1 hPa
Pluja 0.0 mm
Velocitat vent 0.0 km/h
Direcció vent

Dades diàries 2021-11-27



Hora UTC (hivern +1h; estiu +2h)
Temperatura (ºC) Humitat (%) Pressió (hPa) Velocitat vent (km/h) Precipitació (mm)
Hora UTC Aire Humitat Pressió Vel. Dir. Vel. Max Dir. Intent. màx 5 min.
00:05 0.2 79.0 997.1 0.0 0.0 0.0
00:15 0.1 79.0 996.9 0.0 0.0 0.0
00:25 0.1 79.0 996.6 1.6 4.8 0.0
00:35 0.1 79.0 996.6 0.0 4.8 0.0
00:45 0.0 79.0 996.7 0.0 4.8 0.0
00:55 0.1 78.0 996.4 0.0 4.8 0.0
01:05 -0.2 79.0 996.2 0.0 4.8 0.0
01:15 -0.2 79.0 996.2 0.0 4.8 0.0
01:25 -0.3 79.0 996.1 0.0 4.8 0.0
01:35 -0.4 79.0 996.0 0.0 4.8 0.0
01:45 -0.4 79.0 996.0 0.0 4.8 0.0
01:55 -0.5 79.0 995.7 0.0 4.8 0.0
02:05 -0.6 79.0 995.7 0.0 4.8 0.0
02:15 -0.6 79.0 995.6 0.0 4.8 0.0
02:25 -0.4 78.0 995.7 0.0 4.8 0.0
02:35 -0.2 78.0 995.7 0.0 4.8 0.0
02:45 -0.1 78.0 995.5 0.0 4.8 0.0
02:55 0.1 78.0 995.2 0.0 4.8 0.0
03:05 0.3 78.0 995.2 0.0 4.8 0.0
03:15 0.5 78.0 995.1 0.0 4.8 0.0
03:25 0.7 78.0 994.7 0.0 4.8 0.0
03:35 0.8 77.0 994.7 0.0 4.8 0.0
03:45 1.1 77.0 994.5 0.0 4.8 0.0
03:55 1.4 77.0 994.1 0.0 4.8 0.0
04:05 1.7 77.0 994.1 0.0 4.8 0.0
04:15 2.3 77.0 994.0 0.0 6.4 0.0
04:25 2.4 77.0 994.0 0.0 6.4 0.0
04:35 2.6 77.0 994.0 0.0 6.4 0.0
04:45 2.6 77.0 993.8 1.6 6.4 0.0
04:55 2.7 77.0 993.7 1.6 6.4 0.0
05:05 2.9 77.0 993.7 1.6 6.4 0.0
05:15 3.0 78.0 993.5 1.6 8.0 0.0
05:25 3.2 78.0 993.3 0.0 8.0 0.0
05:35 3.2 79.0 993.3 0.0 8.0 0.0
05:45 3.2 79.0 993.1 0.0 8.0 0.0
05:55 3.3 80.0 992.9 0.0 8.0 0.0
06:05 3.3 80.0 992.9 0.0 8.0 0.0
06:15 3.4 80.0 992.8 1.6 8.0 0.0
06:25 3.4 81.0 992.6 0.0 8.0 0.0
06:35 3.5 81.0 992.6 1.6 8.0 0.0
06:45 3.5 81.0 992.4 3.2 9.7 0.0
06:55 3.5 81.0 992.4 1.6 9.7 0.0
07:05 3.4 82.0 992.4 1.6 9.7 0.0
07:15 3.4 82.0 992.4 1.6 9.7 0.0
07:25 3.4 82.0 992.5 1.6 9.7 0.0
07:35 3.9 81.0 992.5 3.2 12.9 0.0
07:45 4.3 82.0 992.4 1.6 12.9 0.0
07:55 4.5 82.0 992.4 1.6 12.9 0.0
08:05 4.6 82.0 992.4 1.6 12.9 0.0
08:15 4.7 82.0 992.5 1.6 12.9 0.0
08:25 4.8 82.0 992.4 1.6 12.9 0.0
08:35 4.9 82.0 992.4 3.2 12.9 0.0
08:45 5.0 82.0 992.4 8.0 17.7 0.0
08:55 5.1 82.0 992.4 4.8 17.7 0.0
09:05 5.1 82.0 992.4 6.4 17.7 0.0
09:15 5.0 82.0 992.4 6.4 17.7 0.0
09:25 5.0 82.0 992.4 3.2 17.7 0.0
09:35 5.1 82.0 992.4 0.0 17.7 0.0
09:45 5.2 82.0 992.4 1.6 17.7 0.0
09:55 5.2 82.0 992.5 0.0 17.7 0.0
10:05 5.2 82.0 992.5 0.0 17.7 0.0
10:15 5.3 82.0 992.6 0.0 17.7 0.0
10:25 5.4 82.0 992.4 0.0 17.7 0.0
10:35 5.5 82.0 992.4 1.6 17.7 0.0
10:45 5.8 82.0 992.4 6.4 17.7 0.0
10:55 6.1 81.0 992.2 4.8 17.7 0.0
11:05 6.3 81.0 992.2 1.6 17.7 0.0
11:15 6.4 81.0 992.4 0.0 17.7 0.0
11:25 6.4 81.0 992.4 1.6 17.7 0.0
11:35 6.5 81.0 992.4 0.0 17.7 0.0
11:45 6.6 80.0 992.2 6.4 19.3 0.0
11:55 6.7 80.0 992.0 9.7 22.5 0.0
12:05 6.9 79.0 992.0 8.0 22.5 0.0
12:15 7.2 79.0 991.7 8.0 22.5 0.0
12:25 7.3 78.0 991.5 9.7 22.5 0.0
12:35 7.7 78.0 991.5 9.7 24.1 0.0
12:45 8.2 76.0 991.3 4.8 24.1 0.0
12:55 8.4 75.0 991.1 6.4 24.1 0.0
13:05 8.6 74.0 991.1 4.8 24.1 0.0
13:15 8.4 72.0 991.1 11.3 30.6 0.0
13:25 8.2 72.0 990.9 19.3 38.6 0.0
13:35 8.2 73.0 990.9 9.7 38.6 0.0
13:45 8.3 73.0 991.2 8.0 38.6 0.0
13:55 8.5 73.0 991.2 1.6 38.6 0.0
14:05 8.6 72.0 991.2 1.6 38.6 0.0
14:15 8.5 71.0 991.5 3.2 38.6 0.0
14:25 8.4 71.0 991.5 4.8 38.6 0.0
14:35 8.3 72.0 991.5 1.6 38.6 0.0
14:45 8.3 72.0 991.7 0.0 38.6 0.0
14:55 8.3 72.0 992.1 0.0 38.6 0.0
15:05 8.3 72.0 992.1 0.0 38.6 0.0
15:15 8.3 72.0 992.3 1.6 38.6 0.0
15:25 8.3 72.0 992.3 0.0 38.6 0.0
15:35 8.2 73.0 992.3 0.0 38.6 0.0
15:45 8.0 72.0 992.5 1.6 38.6 0.0
15:55 7.8 72.0 992.8 3.2 38.6 0.0
16:05 7.7 72.0 992.8 3.2 38.6 0.0
16:15 7.5 73.0 992.8 0.0 38.6 0.0
16:25 7.4 73.0 992.9 0.0 38.6 0.0
16:35 7.2 74.0 992.9 0.0 38.6 0.0
16:45 6.9 75.0 993.2 0.0 38.6 0.0
16:55 6.7 75.0 993.4 0.0 38.6 0.0
17:05 6.5 75.0 993.4 1.6 38.6 0.0
17:15 6.4 74.0 993.4 3.2 38.6 0.0
17:25 6.3 74.0 993.4 6.4 38.6 0.0
17:35 6.2 74.0 993.4 3.2 38.6 0.0
17:45 6.1 75.0 993.4 0.0 38.6 0.0
17:55 5.5 76.0 993.7 0.0 38.6 0.0
18:05 4.9 77.0 993.7 1.6 38.6 0.0
18:15 4.4 79.0 994.0 0.0 38.6 0.0
18:25 3.9 80.0 994.0 0.0 38.6 0.0
18:35 3.6 80.0 994.0 0.0 38.6 0.0
18:45 3.2 81.0 994.5 0.0 38.6 0.0
18:55 2.9 82.0 994.5 0.0 38.6 0.0
19:05 2.7 82.0 994.5 0.0 38.6 0.0
19:15 2.4 82.0 994.5 0.0 38.6 0.0
19:25 2.1 82.0 994.5 0.0 38.6 0.0
19:35 1.9 82.0 994.5 0.0 38.6 0.0
19:45 1.7 82.0 995.0 0.0 38.6 0.0
19:55 1.3 82.0 995.1 0.0 38.6 0.0
20:05 0.9 82.0 995.1 0.0 38.6 0.0
Màxima 8.6 82.0 997.1 19.3 38.6 0.0
Mínima -0.6 71.0 990.9
Total 0.0